Time;durP1;ratioP1;P1;durP2;ratioP2;P2;SDS_P1;SDS_P2;PMS_P1;PMS_P2;Temp;Humidity;BMP_temperature;BMP_pressure;BME280_temperature;BME280_humidity;BME280_pressure;Samples;Min_cycle;Max_cycle;Signal;HPM_P1;HPM_P2
2022/07/01 00:00:50;;;;;;;12.20;10.98;;;23.60;99.90;;;;;;4991011;28;20638;-71
2022/07/01 00:03:16;;;;;;;13.52;12.15;;;23.60;99.90;;;;;;4991292;28;20217;-71
2022/07/01 00:05:42;;;;;;;13.80;12.20;;;23.50;99.90;;;;;;4991204;28;20264;-70
2022/07/01 00:08:08;;;;;;;13.38;12.00;;;23.40;99.90;;;;;;4994359;28;20209;-71
2022/07/01 00:10:35;;;;;;;14.43;12.32;;;23.40;99.90;;;;;;4994467;28;20682;-72
2022/07/01 00:13:01;;;;;;;12.60;11.27;;;23.40;99.90;;;;;;5013296;23;20308;-69
2022/07/01 00:15:27;;;;;;;14.85;12.73;;;23.40;99.90;;;;;;5055227;28;20227;-71
2022/07/01 00:17:52;;;;;;;13.05;11.68;;;23.30;99.90;;;;;;5037378;28;20246;-70
2022/07/01 00:20:18;;;;;;;15.05;12.88;;;23.30;99.90;;;;;;5053383;28;20231;-70
2022/07/01 00:22:44;;;;;;;13.18;11.82;;;23.30;99.90;;;;;;5037342;28;20215;-71
2022/07/01 00:25:10;;;;;;;14.32;12.52;;;23.30;99.90;;;;;;5056351;28;20265;-70
2022/07/01 00:27:39;;;;;;;14.48;12.98;;;23.40;99.90;;;;;;5037779;28;20264;-70
2022/07/01 00:30:06;;;;;;;15.00;12.13;;;23.30;99.90;;;;;;5054717;28;20207;-70
2022/07/01 00:32:31;;;;;;;13.90;12.40;;;23.30;99.90;;;;;;5035946;28;20235;-71
2022/07/01 00:34:57;;;;;;;14.32;12.60;;;23.20;99.90;;;;;;5037442;28;20761;-71
2022/07/01 00:37:22;;;;;;;14.65;12.50;;;23.30;99.90;;;;;;5055096;28;20257;-71
2022/07/01 00:39:48;;;;;;;14.20;12.70;;;23.20;99.90;;;;;;5053473;28;20681;-71
2022/07/01 00:42:13;;;;;;;14.02;12.52;;;23.30;99.90;;;;;;5054079;28;20210;-70
2022/07/01 00:44:39;;;;;;;14.70;13.25;;;23.20;99.90;;;;;;5053408;28;20265;-70
2022/07/01 00:47:11;;;;;;;15.35;13.75;;;23.10;99.90;;;;;;5053679;28;20238;-70
2022/07/01 00:49:37;;;;;;;14.68;13.27;;;23.10;99.90;;;;;;5053184;28;20203;-70
2022/07/01 00:52:07;;;;;;;15.02;13.52;;;23.10;99.90;;;;;;5053598;28;20208;-70
2022/07/01 00:54:36;;;;;;;15.48;13.88;;;23.10;99.90;;;;;;5053699;28;20195;-70
2022/07/01 00:57:09;;;;;;;16.63;14.90;;;23.10;99.90;;;;;;5053970;28;20636;-70
2022/07/01 00:59:36;;;;;;;15.57;14.02;;;23.00;99.90;;;;;;5034983;28;20647;-70
2022/07/01 01:02:03;;;;;;;15.45;13.85;;;23.00;99.90;;;;;;5053727;28;20210;-70
2022/07/01 01:04:28;;;;;;;16.67;14.90;;;23.00;99.90;;;;;;5053476;28;20653;-69
2022/07/01 01:06:54;;;;;;;18.17;15.65;;;22.90;99.90;;;;;;5035491;28;20199;-69
2022/07/01 01:09:19;;;;;;;16.52;14.68;;;23.00;99.90;;;;;;5053282;28;20728;-69
2022/07/01 01:11:45;;;;;;;18.02;14.50;;;23.00;99.90;;;;;;5035743;28;20226;-70
2022/07/01 01:14:11;;;;;;;17.85;15.85;;;22.90;99.90;;;;;;5035496;28;20239;-69
2022/07/01 01:16:38;;;;;;;18.83;16.80;;;22.90;99.90;;;;;;5035215;28;20226;-70
2022/07/01 01:19:05;;;;;;;20.77;17.17;;;22.80;99.90;;;;;;5053058;28;20302;-70
2022/07/01 01:21:34;;;;;;;18.75;16.75;;;22.80;99.90;;;;;;5053562;28;20179;-70
2022/07/01 01:24:00;;;;;;;19.23;17.17;;;22.80;99.90;;;;;;5053139;28;20220;-70
2022/07/01 01:26:25;;;;;;;20.95;17.33;;;22.80;99.90;;;;;;5052868;28;20593;-69
2022/07/01 01:28:52;;;;;;;20.00;17.50;;;22.80;99.90;;;;;;5034850;28;20234;-70
2022/07/01 01:31:28;;;;;;;19.52;17.33;;;22.80;99.90;;;;;;5035159;28;20199;-70
2022/07/01 01:33:54;;;;;;;19.13;16.23;;;22.80;99.90;;;;;;5052910;28;20278;-70
2022/07/01 01:36:19;;;;;;;19.33;17.10;;;22.80;99.90;;;;;;5053494;28;20263;-70
2022/07/01 01:38:45;;;;;;;20.02;17.90;;;22.80;99.90;;;;;;5052182;28;20211;-69
2022/07/01 01:41:11;;;;;;;20.77;18.63;;;22.80;99.90;;;;;;5052738;28;20259;-69
2022/07/01 01:43:36;;;;;;;20.05;17.92;;;22.80;99.90;;;;;;5052137;28;20696;-70
2022/07/01 01:46:03;;;;;;;23.15;19.63;;;22.80;99.90;;;;;;5052400;28;20688;-70
2022/07/01 01:48:30;;;;;;;20.77;17.40;;;22.80;99.90;;;;;;5052447;28;20648;-71
2022/07/01 01:50:56;;;;;;;19.95;17.85;;;22.80;99.90;;;;;;5052146;28;20211;-70
2022/07/01 01:53:21;;;;;;;21.42;18.63;;;22.70;99.90;;;;;;5034061;28;20307;-70
2022/07/01 01:55:47;;;;;;;21.70;19.08;;;22.70;99.90;;;;;;5052137;28;20274;-70
2022/07/01 01:58:13;;;;;;;19.60;17.55;;;22.70;99.90;;;;;;5051790;28;20219;-70
2022/07/01 02:00:38;;;;;;;22.98;19.23;;;22.60;99.90;;;;;;5052307;28;20179;-70
2022/07/01 02:03:04;;;;;;;22.45;20.10;;;22.60;99.90;;;;;;5052115;28;20302;-70
2022/07/01 02:05:30;;;;;;;22.63;19.35;;;22.70;99.90;;;;;;5051670;28;20214;-70
2022/07/01 02:07:56;;;;;;;20.73;18.52;;;22.60;99.90;;;;;;5051953;28;20230;-71
2022/07/01 02:10:22;;;;;;;23.30;18.50;;;22.60;99.90;;;;;;5034073;28;20730;-71
2022/07/01 02:12:47;;;;;;;21.42;19.08;;;22.60;99.90;;;;;;5051689;28;20187;-71
2022/07/01 02:15:13;;;;;;;22.23;18.98;;;22.60;99.90;;;;;;5052475;28;20199;-70
2022/07/01 02:17:38;;;;;;;21.65;19.33;;;22.70;99.90;;;;;;5051573;28;20204;-70
2022/07/01 02:20:05;;;;;;;22.30;19.80;;;22.70;99.90;;;;;;5033487;28;20228;-71
2022/07/01 02:22:30;;;;;;;21.63;18.55;;;22.70;99.90;;;;;;5033629;28;20207;-71
2022/07/01 02:24:56;;;;;;;21.52;19.23;;;22.70;99.90;;;;;;5033713;28;20227;-71
2022/07/01 02:27:21;;;;;;;21.77;19.48;;;22.60;99.90;;;;;;5051777;28;20540;-70
2022/07/01 02:29:47;;;;;;;21.58;18.27;;;22.60;99.90;;;;;;5050401;28;20196;-70
2022/07/01 02:32:12;;;;;;;22.23;18.73;;;22.60;99.90;;;;;;5051397;28;20204;-70
2022/07/01 02:34:38;;;;;;;24.85;20.33;;;22.50;99.90;;;;;;5051116;28;20235;-69
2022/07/01 02:37:04;;;;;;;25.05;20.58;;;22.50;99.90;;;;;;5033349;28;20207;-70
2022/07/01 02:39:29;;;;;;;26.63;21.65;;;22.50;99.90;;;;;;5026779;28;20229;-70
2022/07/01 02:44:39;;;;;;;24.15;21.15;;;22.60;99.90;;;;;;5048666;28;20207;-71
2022/07/01 02:47:05;;;;;;;24.65;21.30;;;22.50;99.90;;;;;;5050923;28;20208;-70
2022/07/01 02:49:31;;;;;;;23.50;20.25;;;22.40;99.90;;;;;;5050714;28;20203;-70
2022/07/01 02:51:56;;;;;;;25.15;20.90;;;22.50;99.90;;;;;;5033132;28;20221;-70
2022/07/01 02:54:22;;;;;;;23.73;20.80;;;22.50;99.90;;;;;;5051143;28;20192;-71
2022/07/01 02:56:48;;;;;;;24.40;21.10;;;22.50;99.90;;;;;;5050913;28;20203;-71
2022/07/01 02:59:13;;;;;;;23.10;20.73;;;22.50;99.90;;;;;;5050738;28;20307;-70
2022/07/01 03:01:39;;;;;;;26.02;22.40;;;22.50;99.90;;;;;;5050773;28;20750;-70
2022/07/01 03:04:04;;;;;;;25.35;22.63;;;22.60;99.90;;;;;;5032857;28;20222;-70
2022/07/01 03:06:30;;;;;;;26.08;21.58;;;22.60;99.90;;;;;;5051120;28;20822;-71
2022/07/01 03:08:57;;;;;;;24.02;20.83;;;22.70;99.90;;;;;;5050553;28;20241;-70
2022/07/01 03:11:22;;;;;;;25.00;22.30;;;22.70;99.90;;;;;;5050438;28;20228;-69
2022/07/01 03:13:48;;;;;;;26.30;21.00;;;22.70;99.90;;;;;;5050472;28;20607;-70
2022/07/01 03:16:14;;;;;;;25.85;21.52;;;22.70;99.90;;;;;;5050303;28;20234;-71
2022/07/01 03:18:40;;;;;;;24.63;21.67;;;22.70;99.90;;;;;;5032268;28;20195;-69
2022/07/01 03:21:06;;;;;;;25.10;21.85;;;22.60;99.90;;;;;;5033100;28;20557;-70
2022/07/01 03:23:31;;;;;;;30.65;22.08;;;22.70;99.90;;;;;;5050365;28;20688;-69
2022/07/01 03:25:57;;;;;;;24.15;21.55;;;22.70;99.90;;;;;;5050480;28;20199;-69
2022/07/01 03:28:22;;;;;;;23.83;20.63;;;22.80;99.90;;;;;;5050044;28;20218;-68
2022/07/01 03:30:48;;;;;;;25.63;22.48;;;23.50;99.90;;;;;;5050409;28;20179;-69
2022/07/01 03:33:13;;;;;;;24.30;20.13;;;24.00;99.90;;;;;;5050860;28;20672;-69
2022/07/01 03:35:40;;;;;;;23.52;20.13;;;24.60;99.90;;;;;;5032358;28;20568;-68
2022/07/01 03:38:07;;;;;;;23.50;19.40;;;25.10;99.90;;;;;;5050195;28;20286;-68
2022/07/01 03:40:32;;;;;;;20.58;18.38;;;25.50;99.90;;;;;;5051734;28;20708;-70
2022/07/01 03:42:58;;;;;;;23.00;20.52;;;25.70;99.90;;;;;;5054387;28;20214;-70
2022/07/01 03:45:24;;;;;;;22.10;19.20;;;25.90;99.90;;;;;;5054409;28;20183;-68
2022/07/01 03:47:51;;;;;;;20.33;18.38;;;26.40;99.90;;;;;;5054345;28;20268;-69
2022/07/01 03:50:17;;;;;;;21.13;18.15;;;26.80;99.90;;;;;;5036456;28;20746;-70
2022/07/01 03:52:43;;;;;;;24.48;19.58;;;27.10;99.90;;;;;;5036251;28;20562;-69
2022/07/01 03:55:12;;;;;;;22.30;19.90;;;27.00;99.90;;;;;;5053954;28;20708;-69
2022/07/01 03:57:38;;;;;;;22.38;19.65;;;26.40;99.90;;;;;;5054502;28;20253;-69
2022/07/01 04:00:05;;;;;;;23.65;19.85;;;26.70;99.90;;;;;;5054002;28;20219;-69
2022/07/01 04:02:31;;;;;;;21.83;19.52;;;26.60;99.90;;;;;;5053987;28;20199;-69
2022/07/01 04:04:56;;;;;;;25.33;19.55;;;27.00;99.90;;;;;;5054021;28;20212;-70
2022/07/01 04:07:22;;;;;;;20.70;18.50;;;27.00;99.90;;;;;;5036021;28;20314;-69
2022/07/01 04:09:48;;;;;;;21.90;19.55;;;27.50;99.90;;;;;;5053581;28;20206;-69
2022/07/01 04:12:14;;;;;;;21.50;18.10;;;27.80;99.90;;;;;;5036459;28;20183;-70
2022/07/01 04:14:39;;;;;;;20.92;18.70;;;28.40;99.90;;;;;;5035323;28;20221;-70
2022/07/01 04:17:05;;;;;;;20.58;18.38;;;28.30;99.90;;;;;;5053945;28;20211;-69
2022/07/01 04:19:31;;;;;;;19.77;17.15;;;29.20;99.90;;;;;;5035523;28;20216;-69
2022/07/01 04:24:41;;;;;;;21.02;17.95;;;30.10;99.90;;;;;;5053581;28;20218;-70
2022/07/01 04:27:07;;;;;;;19.83;17.80;;;30.20;99.90;;;;;;5054276;28;20180;-70
2022/07/01 04:29:32;;;;;;;20.85;18.05;;;30.70;99.90;;;;;;5053245;28;20286;-70
2022/07/01 04:31:58;;;;;;;20.15;18.05;;;30.80;99.90;;;;;;5053067;28;20250;-70
2022/07/01 04:34:25;;;;;;;19.80;17.83;;;31.20;99.90;;;;;;5053246;28;20239;-68
2022/07/01 04:36:51;;;;;;;20.20;18.20;;;31.20;99.90;;;;;;5053477;28;20218;-70
2022/07/01 04:39:16;;;;;;;20.92;18.52;;;31.60;99.90;;;;;;5053670;28;20195;-69
2022/07/01 04:42:00;;;;;;;20.95;18.77;;;31.70;99.90;;;;;;5053275;28;20213;-70
2022/07/01 04:44:30;;;;;;;20.90;18.60;;;31.40;99.90;;;;;;5052613;28;20207;-68
2022/07/01 04:46:56;;;;;;;20.77;18.52;;;31.00;99.90;;;;;;5053587;28;20228;-68
2022/07/01 04:49:22;;;;;;;21.48;19.17;;;30.80;99.90;;;;;;5034907;28;20214;-68
2022/07/01 04:51:47;;;;;;;20.13;18.17;;;30.60;99.90;;;;;;5052345;28;20176;-68
2022/07/01 04:54:13;;;;;;;21.10;18.92;;;30.10;99.90;;;;;;5052144;28;20195;-68
2022/07/01 04:56:39;;;;;;;21.85;19.13;;;30.60;99.90;;;;;;5053213;28;20203;-68
2022/07/01 04:59:05;;;;;;;20.42;18.40;;;30.80;99.90;;;;;;5052816;28;20247;-69
2022/07/01 05:01:31;;;;;;;19.98;17.92;;;31.20;99.90;;;;;;5053110;28;20203;-69
2022/07/01 05:03:57;;;;;;;20.58;18.58;;;31.90;99.90;;;;;;5053067;28;20333;-69
2022/07/01 05:06:23;;;;;;;21.63;17.90;;;32.10;99.90;;;;;;5053668;28;20180;-68
2022/07/01 05:08:49;;;;;;;22.55;20.20;;;32.50;99.90;;;;;;5052732;28;20203;-68
2022/07/01 05:11:15;;;;;;;21.48;18.48;;;32.30;99.90;;;;;;5052927;28;20208;-68
2022/07/01 05:13:41;;;;;;;20.05;17.63;;;31.80;99.90;;;;;;5052543;28;20230;-69
2022/07/01 05:16:08;;;;;;;21.92;19.48;;;31.30;99.90;;;;;;5053224;28;20207;-69
2022/07/01 05:24:03;;;;;;;19.45;17.45;;;31.90;99.90;;;;;;5052605;28;20337;-69
2022/07/01 05:26:29;;;;;;;17.85;15.95;;;32.60;99.90;;;;;;5052659;28;20295;-69
2022/07/01 05:28:55;;;;;;;18.85;16.75;;;32.60;99.90;;;;;;5052423;28;20696;-69
2022/07/01 05:31:21;;;;;;;18.42;16.60;;;32.50;99.90;;;;;;5052566;28;20629;-68
2022/07/01 05:33:47;;;;;;;19.33;17.42;;;31.70;99.90;;;;;;5052437;28;20325;-69
2022/07/01 05:36:14;;;;;;;19.92;17.65;;;31.00;99.90;;;;;;5035150;28;20271;-69
2022/07/01 05:38:40;;;;;;;18.98;17.00;;;30.30;99.90;;;;;;5051701;28;20295;-68
2022/07/01 05:41:06;;;;;;;19.23;17.33;;;29.70;99.90;;;;;;5052359;28;20215;-69
2022/07/01 05:43:31;;;;;;;20.25;18.08;;;29.30;99.90;;;;;;5034267;28;20241;-69
2022/07/01 05:45:57;;;;;;;19.35;17.40;;;28.80;99.90;;;;;;5052236;28;20183;-69
2022/07/01 05:48:38;;;;;;;19.48;17.42;;;28.50;99.90;;;;;;5052712;28;20191;-74
2022/07/01 05:51:03;;;;;;;20.33;18.23;;;28.20;99.90;;;;;;5052385;28;20257;-69
2022/07/01 05:53:29;;;;;;;20.73;18.52;;;27.90;99.90;;;;;;5051716;28;20215;-70
2022/07/01 05:55:55;;;;;;;21.90;19.70;;;27.70;99.90;;;;;;5052403;28;20203;-70
2022/07/01 05:58:20;;;;;;;24.00;21.08;;;27.50;99.90;;;;;;5051919;28;20203;-69
2022/07/01 06:00:46;;;;;;;24.00;19.48;;;27.30;99.90;;;;;;5052182;28;20264;-69
2022/07/01 06:03:13;;;;;;;23.20;18.85;;;27.10;99.90;;;;;;5052531;28;20223;-69
2022/07/01 06:05:40;;;;;;;25.40;21.92;;;27.10;99.90;;;;;;5051944;28;20750;-70
2022/07/01 06:08:06;;;;;;;28.60;25.63;;;27.00;99.90;;;;;;5051536;28;20226;-69
2022/07/01 06:10:32;;;;;;;26.77;23.88;;;27.00;99.90;;;;;;5051813;28;20700;-70
2022/07/01 06:12:58;;;;;;;27.30;23.23;;;27.00;99.90;;;;;;5033827;28;20195;-70
2022/07/01 06:15:24;;;;;;;23.35;20.85;;;27.10;99.90;;;;;;5035685;23;20228;-73
2022/07/01 06:17:50;;;;;;;22.45;20.05;;;27.30;99.90;;;;;;5011765;28;20308;-70
2022/07/01 06:20:15;;;;;;;27.40;24.23;;;27.20;99.90;;;;;;5011836;28;20221;-71
2022/07/01 06:22:41;;;;;;;25.98;23.23;;;27.30;99.90;;;;;;4994335;28;20708;-71
2022/07/01 06:25:07;;;;;;;25.02;22.27;;;27.20;99.90;;;;;;4997123;28;20228;-71
2022/07/01 06:27:41;;;;;;;24.10;21.02;;;27.20;99.90;;;;;;4992696;28;20178;-71
2022/07/01 06:30:08;;;;;;;24.98;20.30;;;27.30;99.90;;;;;;4974737;28;20742;-71
2022/07/01 06:32:33;;;;;;;23.02;20.27;;;27.30;99.90;;;;;;4992106;28;20555;-71
2022/07/01 06:34:59;;;;;;;24.27;21.77;;;27.40;99.90;;;;;;4992326;28;20217;-71
2022/07/01 06:37:24;;;;;;;23.80;20.98;;;27.50;99.90;;;;;;4991901;28;20216;-70
2022/07/01 06:39:50;;;;;;;28.13;24.20;;;28.20;99.90;;;;;;4991924;28;20714;-70
2022/07/01 06:42:15;;;;;;;24.63;22.05;;;29.30;99.90;;;;;;4992513;28;20213;-71
2022/07/01 06:44:41;;;;;;;24.45;21.85;;;31.00;99.90;;;;;;4991794;28;20241;-71
2022/07/01 06:47:07;;;;;;;21.35;19.15;;;32.40;99.90;;;;;;4991931;28;20202;-71
2022/07/01 06:49:33;;;;;;;69.97;60.75;;;32.20;99.90;;;;;;4991766;28;20694;-71
2022/07/01 06:51:58;;;;;;;39.47;35.28;;;31.40;99.90;;;;;;4991923;28;20220;-71
2022/07/01 06:54:24;;;;;;;23.27;19.80;;;30.70;99.90;;;;;;4994236;28;20229;-71
2022/07/01 06:56:49;;;;;;;25.95;21.45;;;31.20;99.90;;;;;;4991770;28;20674;-71
2022/07/01 06:59:15;;;;;;;21.67;19.38;;;32.10;99.90;;;;;;4991265;28;20312;-71
2022/07/01 07:01:41;;;;;;;40.08;33.90;;;31.90;99.90;;;;;;5002454;28;20254;-71
2022/07/01 07:04:07;;;;;;;23.10;20.67;;;31.40;99.90;;;;;;5011354;28;20216;-71
2022/07/01 07:06:33;;;;;;;23.63;20.75;;;30.70;99.90;;;;;;5010222;28;20188;-71
2022/07/01 07:08:59;;;;;;;20.40;18.25;;;30.00;99.90;;;;;;5010945;28;20219;-71
2022/07/01 07:11:25;;;;;;;22.77;18.88;;;29.80;99.90;;;;;;5011104;28;20217;-71
2022/07/01 07:13:50;;;;;;;20.77;17.80;;;29.40;99.90;;;;;;5010890;28;20242;-71
2022/07/01 07:16:20;;;;;;;24.10;21.55;;;29.50;99.90;;;;;;4985729;28;20221;-70
2022/07/01 07:18:47;;;;;;;20.08;18.10;;;29.60;99.90;;;;;;5009621;28;20200;-71
2022/07/01 07:21:12;;;;;;;16.48;14.40;;;30.90;99.90;;;;;;5011694;28;20243;-72
2022/07/01 07:23:38;;;;;;;14.10;12.73;;;31.60;99.90;;;;;;5008160;28;20670;-73
2022/07/01 07:26:04;;;;;;;13.63;12.23;;;32.80;99.90;;;;;;4991683;28;20599;-71
2022/07/01 07:28:29;;;;;;;12.95;11.65;;;33.30;99.90;;;;;;4991152;28;20275;-71
2022/07/01 07:30:55;;;;;;;21.95;19.85;;;34.50;99.90;;;;;;4991605;28;20672;-72
2022/07/01 07:33:20;;;;;;;14.38;12.98;;;34.50;99.90;;;;;;4991823;28;20623;-72
2022/07/01 07:35:46;;;;;;;21.63;19.40;;;34.40;99.90;;;;;;5011177;28;20233;-71
2022/07/01 07:38:12;;;;;;;13.18;12.00;;;33.80;99.90;;;;;;4995896;28;20240;-71
2022/07/01 07:40:37;;;;;;;20.25;18.13;;;33.50;99.90;;;;;;4973788;28;20270;-71
2022/07/01 07:43:03;;;;;;;17.38;15.40;;;33.10;99.90;;;;;;4973818;28;20702;-71
2022/07/01 07:45:29;;;;;;;12.43;11.23;;;32.90;99.90;;;;;;4987568;28;20240;-72
2022/07/01 07:47:54;;;;;;;11.98;10.77;;;33.30;99.90;;;;;;4993398;28;20217;-73
2022/07/01 07:50:22;;;;;;;11.30;10.27;;;33.80;99.90;;;;;;4994271;28;20820;-74
2022/07/01 07:52:47;;;;;;;10.80;9.70;;;34.70;99.90;;;;;;5009349;28;20283;-73
2022/07/01 07:55:13;;;;;;;10.57;9.57;;;35.30;99.90;;;;;;4992893;28;20327;-73
2022/07/01 07:57:40;;;;;;;25.45;12.45;;;36.30;99.90;;;;;;4992703;28;20562;-73
2022/07/01 08:00:08;;;;;;;14.70;13.23;;;37.20;99.90;;;;;;5010819;28;20208;-74
2022/07/01 08:02:34;;;;;;;12.82;11.40;;;37.70;99.90;;;;;;5010057;28;20310;-73
2022/07/01 08:04:59;;;;;;;13.70;12.30;;;37.30;99.90;;;;;;4988161;28;20217;-71
2022/07/01 08:07:25;;;;;;;13.38;12.07;;;37.40;99.90;;;;;;4990706;28;20209;-72
2022/07/01 08:09:51;;;;;;;13.00;11.77;;;37.60;99.90;;;;;;4990564;28;20181;-74
2022/07/01 08:12:16;;;;;;;11.52;10.35;;;37.80;99.90;;;;;;4991078;28;20265;-74
2022/07/01 08:14:43;;;;;;;17.20;11.32;;;37.00;99.90;;;;;;4990375;28;20225;-72
2022/07/01 08:17:08;;;;;;;26.23;23.67;;;36.50;99.90;;;;;;4973243;28;20214;-71
2022/07/01 08:19:34;;;;;;;12.18;11.02;;;36.30;99.90;;;;;;4990218;28;20213;-73
2022/07/01 08:22:00;;;;;;;12.40;11.20;;;37.10;99.90;;;;;;4990782;28;20212;-73
2022/07/01 08:24:26;;;;;;;13.57;12.38;;;37.20;99.90;;;;;;4996769;28;20581;-74
2022/07/01 08:26:51;;;;;;;12.25;11.05;;;38.00;99.90;;;;;;4994361;28;20217;-74
2022/07/01 08:29:17;;;;;;;17.58;15.98;;;38.00;99.90;;;;;;5007661;28;20266;-74
2022/07/01 08:31:42;;;;;;;14.85;13.40;;;37.10;99.90;;;;;;4995176;28;20205;-73
2022/07/01 08:34:09;;;;;;;13.88;12.57;;;35.70;99.90;;;;;;4978820;28;20223;-73
2022/07/01 08:36:35;;;;;;;13.93;12.73;;;35.50;99.90;;;;;;5013411;28;20187;-73
2022/07/01 08:39:02;;;;;;;13.30;12.00;;;36.10;99.90;;;;;;5013329;28;20212;-74
2022/07/01 08:41:28;;;;;;;36.95;33.33;;;36.10;99.90;;;;;;5013271;28;20209;-73
2022/07/01 08:43:53;;;;;;;17.13;15.43;;;36.40;99.90;;;;;;5013271;28;20223;-73
2022/07/01 08:46:19;;;;;;;15.65;14.25;;;36.60;99.90;;;;;;4997564;28;20209;-73
2022/07/01 08:48:45;;;;;;;16.45;14.93;;;37.10;99.90;;;;;;4993508;28;20219;-73
2022/07/01 08:51:11;;;;;;;13.40;12.10;;;37.50;99.90;;;;;;4994250;28;20225;-72
2022/07/01 08:53:37;;;;;;;16.55;14.95;;;37.20;99.90;;;;;;4995923;28;20333;-72
2022/07/01 08:58:51;;;;;;;13.25;11.68;;;37.10;99.90;;;;;;4993203;28;20220;-73
2022/07/01 09:01:20;;;;;;;13.90;12.63;;;36.60;99.90;;;;;;5008771;28;20219;-74
2022/07/01 09:03:47;;;;;;;13.00;11.65;;;35.60;99.90;;;;;;5013203;28;20684;-73
2022/07/01 09:06:17;;;;;;;11.18;10.07;;;34.60;99.90;;;;;;5013898;28;20177;-73
2022/07/01 09:08:44;;;;;;;10.43;9.48;;;33.80;99.90;;;;;;5012623;28;20196;-73
2022/07/01 09:11:24;;;;;;;12.68;10.05;;;33.20;99.90;;;;;;5011952;28;20242;-72
2022/07/01 09:14:10;;;;;;;18.17;11.55;;;32.30;99.90;;;;;;5012791;28;20224;-72
2022/07/01 09:16:45;;;;;;;11.57;7.28;;;31.70;99.90;;;;;;5012899;28;20212;-70
2022/07/01 09:19:12;;;;;;;8.52;5.13;;;30.50;99.90;;;;;;5000839;28;20312;-71
2022/07/01 09:21:39;;;;;;;7.50;4.00;;;29.50;99.90;;;;;;4994163;28;20205;-69
2022/07/01 09:24:25;;;;;;;5.88;4.43;;;28.60;99.90;;;;;;4999976;28;20838;-73
2022/07/01 09:26:59;;;;;;;7.20;3.35;;;27.60;99.90;;;;;;4993456;28;20213;-69
2022/07/01 09:29:31;;;;;;;4.60;3.25;;;26.60;99.90;;;;;;4975295;28;20223;-69
2022/07/01 09:31:58;;;;;;;4.60;2.90;;;26.30;99.90;;;;;;4993427;28;20210;-69
2022/07/01 09:34:23;;;;;;;8.75;3.85;;;25.80;99.90;;;;;;4992941;28;20313;-70
2022/07/01 09:36:54;;;;;;;5.80;2.40;;;25.30;99.90;;;;;;4975829;28;20635;-69
2022/07/01 09:39:20;;;;;;;6.97;2.90;;;24.80;99.90;;;;;;4992797;28;20263;-69
2022/07/01 09:41:45;;;;;;;4.35;1.67;;;24.30;99.90;;;;;;4992636;28;20690;-70
2022/07/01 09:44:11;;;;;;;6.35;2.00;;;23.90;99.90;;;;;;4992910;28;20229;-70
2022/07/01 09:46:37;;;;;;;1.50;1.35;;;23.60;99.90;;;;;;4992821;28;20214;-70
2022/07/01 09:49:03;;;;;;;3.42;1.88;;;23.40;99.90;;;;;;4975233;28;20588;-70
2022/07/01 09:51:29;;;;;;;3.15;2.47;;;23.20;99.90;;;;;;4993246;28;20216;-70
2022/07/01 09:53:58;;;;;;;3.75;2.58;;;23.50;99.90;;;;;;4994982;28;20224;-70
2022/07/01 09:56:24;;;;;;;3.30;2.22;;;23.20;99.90;;;;;;4975323;28;20206;-70
2022/07/01 09:58:50;;;;;;;2.90;2.70;;;22.70;99.90;;;;;;4974867;28;20225;-69
2022/07/01 10:01:17;;;;;;;2.65;2.33;;;22.70;99.90;;;;;;4992511;28;20232;-70
2022/07/01 10:03:44;;;;;;;5.00;2.67;;;22.60;99.90;;;;;;4992454;28;20250;-70
2022/07/01 10:06:33;;;;;;;2.03;1.80;;;22.70;99.90;;;;;;4975530;28;20185;-70
2022/07/01 10:09:30;;;;;;;3.67;2.08;;;22.40;99.90;;;;;;4992207;28;20328;-70
2022/07/01 10:12:30;;;;;;;6.13;2.88;;;22.40;99.90;;;;;;4992631;28;20283;-70
2022/07/01 10:14:59;;;;;;;2.00;1.75;;;22.30;99.90;;;;;;4992254;28;20226;-70
2022/07/01 10:17:36;;;;;;;2.67;1.67;;;22.70;99.90;;;;;;4991981;28;20252;-72
2022/07/01 10:20:17;;;;;;;4.00;1.55;;;22.70;99.90;;;;;;4991844;28;20256;-70
2022/07/01 10:22:44;;;;;;;2.95;2.05;;;22.70;99.90;;;;;;4992000;28;20687;-75
2022/07/01 10:25:41;;;;;;;2.10;1.90;;;22.60;99.90;;;;;;4976461;28;20221;-73
2022/07/01 10:28:27;;;;;;;4.38;2.40;;;22.80;99.90;;;;;;5001121;28;20213;-72
2022/07/01 10:31:04;;;;;;;2.20;2.00;;;22.80;99.90;;;;;;5002359;28;20689;-73
2022/07/01 10:33:49;;;;;;;3.08;1.95;;;22.50;99.90;;;;;;5012047;28;20196;-73
2022/07/01 10:36:22;;;;;;;2.97;1.80;;;22.40;99.90;;;;;;4992410;28;20205;-73
2022/07/01 10:39:06;;;;;;;1.98;1.77;;;22.60;99.90;;;;;;4974215;28;20271;-74
2022/07/01 10:41:39;;;;;;;3.58;1.80;;;22.50;99.90;;;;;;4991948;28;20224;-74
2022/07/01 10:44:13;;;;;;;4.15;1.42;;;22.40;99.90;;;;;;5007761;28;20220;-74
2022/07/01 10:46:46;;;;;;;1.90;1.70;;;22.90;99.90;;;;;;4992275;28;20209;-74
2022/07/01 10:49:14;;;;;;;2.20;1.30;;;22.70;99.90;;;;;;5001343;28;20218;-74
2022/07/01 10:51:47;;;;;;;2.40;1.60;;;22.60;99.90;;;;;;4991372;28;20178;-74
2022/07/01 10:54:13;;;;;;;4.65;2.28;;;22.50;99.90;;;;;;4993256;28;20292;-72
2022/07/01 10:56:41;;;;;;;0.70;0.70;;;22.80;99.90;;;;;;4991453;28;20304;-72
2022/07/01 10:59:07;;;;;;;0.98;0.63;;;22.60;99.90;;;;;;4990935;28;20217;-72
2022/07/01 11:01:33;;;;;;;5.53;1.35;;;22.40;99.90;;;;;;4985161;28;20275;-73
2022/07/01 11:03:59;;;;;;;3.53;1.20;;;22.30;99.90;;;;;;5010848;28;20220;-72
2022/07/01 11:06:25;;;;;;;1.02;0.73;;;22.20;99.90;;;;;;5011504;28;20177;-72
2022/07/01 11:08:51;;;;;;;1.90;0.93;;;22.10;99.90;;;;;;4998546;28;20214;-73
2022/07/01 11:11:19;;;;;;;2.30;1.02;;;21.80;99.90;;;;;;4991407;28;20217;-74
2022/07/01 11:13:45;;;;;;;3.25;0.90;;;21.70;99.90;;;;;;5003329;28;20709;-72
2022/07/01 11:16:11;;;;;;;1.60;1.15;;;21.90;99.90;;;;;;5011004;28;20216;-74
2022/07/01 11:18:36;;;;;;;1.55;0.68;;;21.90;99.90;;;;;;5010911;28;20185;-72
2022/07/01 11:21:07;;;;;;;1.85;1.10;;;21.60;99.90;;;;;;5010799;28;20205;-70
2022/07/01 11:23:32;;;;;;;5.32;1.98;;;21.70;99.90;;;;;;5010385;28;20211;-75
2022/07/01 11:25:58;;;;;;;3.13;1.65;;;21.30;99.90;;;;;;4973680;28;20292;-74
2022/07/01 11:28:24;;;;;;;2.15;1.38;;;21.40;99.90;;;;;;4990899;28;20698;-74
2022/07/01 11:30:59;;;;;;;1.58;1.38;;;21.10;99.90;;;;;;4991082;28;20280;-76
2022/07/01 11:33:24;;;;;;;2.00;1.13;;;20.80;99.90;;;;;;4974124;28;20184;-74
2022/07/01 11:41:22;;;;;;;5.15;1.83;;;20.50;99.90;;;;;;4991387;28;20635;-73
2022/07/01 11:43:48;;;;;;;4.57;1.95;;;20.80;99.90;;;;;;4973438;28;20279;-74
2022/07/01 11:46:14;;;;;;;3.17;1.58;;;21.10;99.90;;;;;;4995615;28;20228;-74
2022/07/01 11:48:44;;;;;;;5.72;1.70;;;20.90;99.90;;;;;;5009022;28;20581;-74
2022/07/01 11:51:15;;;;;;;2.67;1.63;;;21.10;99.90;;;;;;4993178;28;20216;-73
2022/07/01 11:53:49;;;;;;;3.03;1.02;;;21.10;99.90;;;;;;5007137;28;20240;-76
2022/07/01 11:56:15;;;;;;;2.03;1.70;;;21.40;99.90;;;;;;4990916;28;20205;-74
2022/07/01 11:58:41;;;;;;;2.55;1.73;;;21.80;99.90;;;;;;4990411;28;20205;-77
2022/07/01 12:01:08;;;;;;;2.78;2.40;;;21.70;99.90;;;;;;4991970;28;20632;-75
2022/07/01 12:03:34;;;;;;;1.98;1.75;;;21.40;99.90;;;;;;4994842;28;20192;-76
2022/07/01 12:06:00;;;;;;;4.22;2.55;;;21.40;99.90;;;;;;4994796;28;20706;-73
2022/07/01 12:08:26;;;;;;;3.58;2.70;;;21.40;99.90;;;;;;4994129;28;20213;-75
2022/07/01 12:10:52;;;;;;;3.08;2.75;;;21.60;99.90;;;;;;4994679;28;20210;-76
2022/07/01 12:13:25;;;;;;;3.25;2.75;;;21.40;99.90;;;;;;5000734;28;20591;-73
2022/07/01 12:15:50;;;;;;;3.67;2.67;;;21.40;99.90;;;;;;4985071;23;20206;-78
2022/07/01 12:18:16;;;;;;;4.00;2.90;;;21.70;99.90;;;;;;5034747;28;20241;-73
2022/07/01 12:20:54;;;;;;;3.47;3.17;;;21.80;99.90;;;;;;5033983;28;20234;-73
2022/07/01 12:23:20;;;;;;;3.53;3.20;;;21.90;99.90;;;;;;5053652;28;20294;-75
2022/07/01 12:25:48;;;;;;;3.83;3.22;;;21.80;99.90;;;;;;5052626;28;20217;-73
2022/07/01 12:28:39;;;;;;;5.40;4.00;;;21.50;99.90;;;;;;5035073;28;20630;-75
2022/07/01 12:31:08;;;;;;;4.63;3.55;;;21.90;99.90;;;;;;5053737;28;20204;-73
2022/07/01 12:33:39;;;;;;;4.07;3.67;;;21.90;99.90;;;;;;5036125;28;20187;-73
2022/07/01 12:36:06;;;;;;;5.13;4.25;;;21.80;99.90;;;;;;5053563;28;20314;-74
2022/07/01 12:38:32;;;;;;;5.80;4.65;;;21.90;99.90;;;;;;5053000;28;20238;-72
2022/07/01 12:40:58;;;;;;;4.97;4.45;;;22.00;99.90;;;;;;5053352;28;20222;-73
2022/07/01 12:43:28;;;;;;;5.25;4.68;;;21.80;99.90;;;;;;5035364;28;20212;-73
2022/07/01 12:45:58;;;;;;;4.63;3.70;;;21.80;99.90;;;;;;5053459;28;20647;-73
2022/07/01 12:48:24;;;;;;;5.45;4.35;;;21.80;99.90;;;;;;5035534;28;20183;-74
2022/07/01 12:50:53;;;;;;;5.40;4.32;;;22.00;99.90;;;;;;5053384;28;20295;-74
2022/07/01 12:53:20;;;;;;;5.30;4.53;;;22.10;99.90;;;;;;5053371;28;20273;-76